Time;durP1;ratioP1;P1;durP2;ratioP2;P2;SDS_P1;SDS_P2;PMS_P1;PMS_P2;Temp;Humidity;BMP_temperature;BMP_pressure;BME280_temperature;BME280_humidity;BME280_pressure;Samples;Min_cycle;Max_cycle;Signal;HPM_P1;HPM_P2
2023/08/09 00:01:03;;;;;;;4.20;2.70;;;;;;;14.28;62.91;99761.91;102633;1264;138405;-70
2023/08/09 00:03:35;;;;;;;7.00;2.70;;;;;;;14.27;62.88;99759.52;102763;1264;112465;-70
2023/08/09 00:06:02;;;;;;;5.10;3.10;;;;;;;14.26;62.94;99762.39;102744;1260;108986;-70
2023/08/09 00:08:29;;;;;;;3.40;2.50;;;;;;;14.22;63.07;99757.55;101861;1264;1003760;-70
2023/08/09 00:10:57;;;;;;;4.40;2.80;;;;;;;14.19;63.46;99758.58;102718;1261;107550;-70
2023/08/09 00:13:24;;;;;;;4.10;2.90;;;;;;;14.18;63.63;99757.57;102957;1262;138301;-70
2023/08/09 00:15:51;;;;;;;5.20;2.40;;;;;;;14.15;63.70;99767.86;102733;1262;111338;-70
2023/08/09 00:18:26;;;;;;;4.50;2.60;;;;;;;14.14;63.85;99768.98;102625;1259;139597;-69
2023/08/09 00:20:53;;;;;;;5.80;2.70;;;;;;;14.12;64.17;99771.70;102739;1262;98126;-69
2023/08/09 00:23:24;;;;;;;4.70;2.60;;;;;;;14.10;64.18;99772.70;102726;1264;106691;-70
2023/08/09 00:25:51;;;;;;;4.10;2.60;;;;;;;14.10;64.44;99776.05;102649;1261;138310;-70
2023/08/09 00:28:18;;;;;;;5.00;2.60;;;;;;;14.08;64.71;99774.75;102766;1265;111358;-70
2023/08/09 00:30:46;;;;;;;4.20;2.40;;;;;;;14.05;64.84;99775.10;102592;1264;138569;-69
2023/08/09 00:33:13;;;;;;;3.90;2.10;;;;;;;14.03;64.93;99765.61;102734;1266;98352;-69
2023/08/09 00:35:40;;;;;;;2.90;2.60;;;;;;;14.03;64.92;99759.82;102749;1264;106813;-70
2023/08/09 00:38:08;;;;;;;3.20;2.50;;;;;;;14.05;65.07;99762.84;102675;1264;138535;-70
2023/08/09 00:40:36;;;;;;;3.20;2.40;;;;;;;14.05;65.25;99767.40;102716;1265;111269;-70
2023/08/09 00:43:04;;;;;;;2.60;2.30;;;;;;;14.03;65.31;99770.50;102594;1264;139023;-70
2023/08/09 00:45:32;;;;;;;5.60;2.30;;;;;;;14.01;65.39;99770.60;102721;1262;97710;-69
2023/08/09 00:48:00;;;;;;;6.20;2.40;;;;;;;14.01;65.45;99773.21;102691;1265;107974;-70
2023/08/09 00:50:28;;;;;;;3.90;2.50;;;;;;;14.01;65.60;99774.60;102513;1262;138645;-70
2023/08/09 00:53:15;;;;;;;3.20;2.30;;;;;;;14.00;65.64;99776.02;102706;1264;111219;-70
2023/08/09 00:55:53;;;;;;;4.70;2.50;;;;;;;14.00;65.66;99775.35;102527;1261;138389;-70
2023/08/09 00:58:20;;;;;;;4.40;2.30;;;;;;;13.98;65.95;99776.33;102621;1262;97952;-70
2023/08/09 01:00:47;;;;;;;5.30;2.70;;;;;;;13.96;65.96;99780.61;102611;1264;139351;-70
2023/08/09 01:03:15;;;;;;;6.70;2.40;;;;;;;13.96;65.95;99779.95;102776;1262;97793;-70
2023/08/09 01:06:03;;;;;;;4.00;2.50;;;;;;;13.94;66.31;99777.08;102783;1264;110891;-70
2023/08/09 01:08:37;;;;;;;3.30;2.20;;;;;;;13.90;66.24;99781.79;102609;1261;139132;-70
2023/08/09 01:11:10;;;;;;;4.40;2.50;;;;;;;13.90;66.57;99783.23;102604;1264;98439;-70
2023/08/09 01:13:40;;;;;;;7.00;2.80;;;;;;;13.87;66.92;99784.23;102527;1266;138850;-70
2023/08/09 01:16:11;;;;;;;4.20;2.60;;;;;;;13.85;67.07;99783.64;102737;1266;97790;-69
2023/08/09 01:18:40;;;;;;;3.20;2.40;;;;;;;13.84;67.23;99785.45;102900;1262;138900;-70
2023/08/09 01:21:08;;;;;;;4.60;2.80;;;;;;;13.83;67.21;99784.29;102811;1262;107236;-69
2023/08/09 01:23:37;;;;;;;4.50;2.50;;;;;;;13.83;67.23;99789.91;102722;1261;98357;-70
2023/08/09 01:26:04;;;;;;;2.90;2.40;;;;;;;13.84;67.58;99789.33;102560;1265;138223;-68
2023/08/09 01:28:31;;;;;;;4.40;2.80;;;;;;;13.84;67.64;99787.94;102689;1264;97840;-68
2023/08/09 01:30:59;;;;;;;6.00;2.90;;;;;;;13.84;67.82;99788.29;102588;1260;138248;-69
2023/08/09 01:33:26;;;;;;;4.90;2.70;;;;;;;13.83;67.82;99777.30;102676;1261;107716;-69
2023/08/09 01:35:56;;;;;;;5.00;2.50;;;;;;;13.83;68.46;99776.79;102686;1272;98452;-69
2023/08/09 01:38:29;;;;;;;3.50;2.70;;;;;;;13.83;68.41;99765.09;102603;1262;138136;-69
2023/08/09 01:40:57;;;;;;;4.70;2.70;;;;;;;13.83;68.65;99768.73;102678;1265;97703;-69
2023/08/09 01:43:25;;;;;;;3.30;2.40;;;;;;;13.84;68.44;99765.20;102615;1260;138382;-69
2023/08/09 01:45:52;;;;;;;6.70;2.80;;;;;;;13.84;68.38;99767.27;102673;1260;108683;-69
2023/08/09 01:48:19;;;;;;;5.90;2.90;;;;;;;13.85;68.27;99768.10;102556;1264;139246;-69
2023/08/09 01:50:47;;;;;;;3.80;2.30;;;;;;;13.87;68.46;99772.19;102738;1264;108627;-69
2023/08/09 01:53:14;;;;;;;3.90;2.30;;;;;;;13.89;68.23;99775.95;102666;1264;97801;-69
2023/08/09 01:55:42;;;;;;;4.50;2.70;;;;;;;13.90;68.34;99778.34;102547;1262;138498;-69
2023/08/09 01:58:09;;;;;;;5.10;2.70;;;;;;;13.89;68.57;99783.11;102668;1265;107447;-69
2023/08/09 02:00:36;;;;;;;3.30;2.50;;;;;;;13.89;68.58;99781.70;102531;1264;138649;-69
2023/08/09 02:03:06;;;;;;;3.60;2.70;;;;;;;13.90;68.61;99783.89;102662;1265;107786;-69
2023/08/09 02:05:34;;;;;;;5.30;2.90;;;;;;;13.90;68.93;99783.55;102984;1265;97784;-69
2023/08/09 02:08:04;;;;;;;3.80;3.00;;;;;;;13.92;68.72;99781.02;102569;1261;138144;-69
2023/08/09 02:10:32;;;;;;;4.10;2.70;;;;;;;13.93;68.66;99779.02;102690;1265;107076;-69
2023/08/09 02:12:59;;;;;;;3.40;2.70;;;;;;;13.94;68.61;99780.42;102642;1274;138355;-69
2023/08/09 02:15:26;;;;;;;5.40;2.70;;;;;;;13.96;68.68;99783.10;102694;1265;108843;-69
2023/08/09 02:17:56;;;;;;;4.90;2.80;;;;;;;13.97;68.67;99791.42;102689;1265;97803;-69
2023/08/09 02:20:28;;;;;;;5.30;2.70;;;;;;;13.98;68.62;99801.48;102631;1266;139128;-69
2023/08/09 02:22:55;;;;;;;4.80;2.70;;;;;;;13.99;68.71;99801.42;102632;1264;108284;-69
2023/08/09 02:25:25;;;;;;;4.80;2.60;;;;;;;13.98;68.78;99807.05;102605;1262;138348;-69
2023/08/09 02:27:52;;;;;;;3.60;2.60;;;;;;;13.97;68.72;99801.88;102709;1266;107537;-69
2023/08/09 02:30:20;;;;;;;6.90;2.90;;;;;;;13.96;68.79;99798.65;102542;1266;138980;-69
2023/08/09 02:32:50;;;;;;;5.60;2.60;;;;;;;13.95;68.91;99801.50;102642;1268;111268;-69
2023/08/09 02:35:17;;;;;;;4.40;2.60;;;;;;;13.91;69.06;99797.65;102613;1275;107894;-69
2023/08/09 02:37:44;;;;;;;3.10;3.20;;;;;;;13.87;69.24;99795.58;102663;1261;138422;-69
2023/08/09 02:40:13;;;;;;;4.90;2.70;;;;;;;13.83;69.60;99796.67;102687;1261;110867;-69
2023/08/09 02:42:40;;;;;;;3.50;2.70;;;;;;;13.79;69.51;99797.95;103127;1263;138579;-69
2023/08/09 02:45:12;;;;;;;2.90;2.40;;;;;;;13.76;69.77;99798.13;102700;1266;110770;-69
2023/08/09 02:47:42;;;;;;;3.30;2.70;;;;;;;13.74;69.91;99796.11;102731;1266;107253;-69
2023/08/09 02:50:10;;;;;;;4.90;2.80;;;;;;;13.73;70.22;99793.77;102639;1264;139097;-68
2023/08/09 02:52:37;;;;;;;3.00;2.60;;;;;;;13.68;70.50;99795.39;102705;1265;107401;-68
2023/08/09 02:55:06;;;;;;;4.50;2.80;;;;;;;13.64;70.68;99790.02;102608;1260;139361;-69
2023/08/09 02:57:34;;;;;;;3.20;2.70;;;;;;;13.60;70.91;99791.92;102722;1261;111450;-69
2023/08/09 03:00:01;;;;;;;3.60;2.90;;;;;;;13.57;70.93;99795.24;102682;1261;107439;-68
2023/08/09 03:02:29;;;;;;;3.80;2.40;;;;;;;13.56;70.98;99793.59;102629;1260;138175;-68
2023/08/09 03:04:56;;;;;;;3.90;2.90;;;;;;;13.55;71.14;99789.61;102704;1266;108546;-68
2023/08/09 03:07:24;;;;;;;6.00;2.80;;;;;;;13.53;71.35;99797.73;102624;1261;138381;-69
2023/08/09 03:09:51;;;;;;;5.90;2.50;;;;;;;13.51;71.64;99803.79;104270;1261;112402;-69
2023/08/09 03:12:18;;;;;;;6.20;2.70;;;;;;;13.50;71.64;99802.81;103782;1264;138706;-69
2023/08/09 03:14:45;;;;;;;6.10;3.00;;;;;;;13.49;71.67;99804.59;102702;1267;99476;-68
2023/08/09 03:17:13;;;;;;;4.20;2.40;;;;;;;13.48;71.90;99803.92;102609;1268;106572;-69
2023/08/09 03:19:41;;;;;;;7.20;2.60;;;;;;;13.47;71.92;99809.06;102633;1266;138319;-69
2023/08/09 03:22:08;;;;;;;4.90;3.60;;;;;;;13.47;72.22;99811.52;102701;1260;110521;-69
2023/08/09 03:24:36;;;;;;;3.40;3.00;;;;;;;13.45;72.19;99823.09;102513;1268;138716;-69
2023/08/09 03:27:04;;;;;;;5.90;2.90;;;;;;;13.45;72.40;99824.49;102718;1274;97818;-68
2023/08/09 03:29:31;;;;;;;4.30;3.00;;;;;;;13.44;72.34;99823.17;102623;1264;107456;-69
2023/08/09 03:31:58;;;;;;;3.80;2.50;;;;;;;13.43;72.59;99823.23;102514;1267;138348;-69
2023/08/09 03:34:25;;;;;;;3.90;2.50;;;;;;;13.42;72.50;99826.61;102720;1266;110277;-69
2023/08/09 03:36:52;;;;;;;3.40;2.90;;;;;;;13.41;72.53;99831.23;102496;1267;138530;-69
2023/08/09 03:39:21;;;;;;;4.70;2.90;;;;;;;13.39;72.82;99833.20;102813;1263;98378;-69
2023/08/09 03:41:48;;;;;;;5.00;2.60;;;;;;;13.37;72.88;99836.46;102698;1262;106017;-69
2023/08/09 03:44:15;;;;;;;4.40;2.40;;;;;;;13.36;72.84;99830.77;103023;1260;138484;-68
2023/08/09 03:46:43;;;;;;;3.70;2.60;;;;;;;13.34;72.92;99834.36;102755;1262;111028;-68
2023/08/09 03:49:11;;;;;;;5.80;2.90;;;;;;;13.34;73.06;99832.25;102560;1264;138318;-68
2023/08/09 03:51:42;;;;;;;3.20;2.50;;;;;;;13.35;73.12;99832.92;102687;1267;98328;-68
2023/08/09 03:54:09;;;;;;;4.60;2.80;;;;;;;13.34;73.06;99834.88;102683;1261;107405;-68
2023/08/09 03:56:36;;;;;;;6.20;3.00;;;;;;;13.35;73.30;99834.63;102706;1261;97772;-69
2023/08/09 03:59:03;;;;;;;5.30;2.70;;;;;;;13.33;73.47;99834.21;102733;1264;110994;-68
2023/08/09 04:01:31;;;;;;;5.10;2.70;;;;;;;13.34;73.42;99828.80;102534;1266;138375;-69
2023/08/09 04:03:59;;;;;;;4.20;2.90;;;;;;;13.34;73.85;99828.92;102708;1264;99152;-69
2023/08/09 04:06:26;;;;;;;5.50;3.10;;;;;;;13.38;73.68;99827.88;102631;1261;138520;-69
2023/08/09 04:08:53;;;;;;;4.70;2.90;;;;;;;13.40;73.64;99830.19;102695;1264;97821;-69
2023/08/09 04:11:20;;;;;;;5.40;3.10;;;;;;;13.46;73.57;99836.89;102689;1264;111027;-68
2023/08/09 04:13:47;;;;;;;6.80;3.10;;;;;;;13.54;73.73;99848.35;102630;1264;138415;-68
2023/08/09 04:16:14;;;;;;;5.60;3.20;;;;;;;13.64;73.52;99843.46;102728;1264;99508;-69
2023/08/09 04:18:41;;;;;;;4.00;2.80;;;;;;;13.74;73.43;99845.38;102554;1264;138297;-69
2023/08/09 04:21:09;;;;;;;7.30;2.70;;;;;;;13.80;73.21;99844.36;102681;1264;97686;-68
2023/08/09 04:23:37;;;;;;;6.30;2.70;;;;;;;13.84;73.22;99845.42;102696;1261;111411;-69
2023/08/09 04:26:05;;;;;;;6.20;2.90;;;;;;;13.84;73.21;99849.77;102514;1264;138908;-69
2023/08/09 04:28:32;;;;;;;6.00;3.00;;;;;;;13.82;73.20;99847.42;102683;1260;98317;-68
2023/08/09 04:31:00;;;;;;;8.70;3.00;;;;;;;13.81;73.13;99848.17;102590;1264;138298;-71
2023/08/09 04:33:27;;;;;;;5.60;2.70;;;;;;;13.81;73.19;99851.65;102938;1261;97823;-71
2023/08/09 04:35:55;;;;;;;5.00;3.20;;;;;;;13.85;73.14;99845.00;102770;1261;111825;-68
2023/08/09 04:38:22;;;;;;;7.10;2.90;;;;;;;13.87;73.02;99844.38;104031;1260;138856;-69
2023/08/09 04:40:49;;;;;;;4.00;2.80;;;;;;;13.91;73.14;99846.45;104194;1260;96100;-69
2023/08/09 04:43:17;;;;;;;5.70;2.70;;;;;;;13.97;73.11;99845.05;103732;1260;138729;-69
2023/08/09 04:45:44;;;;;;;5.40;2.90;;;;;;;14.03;72.96;99846.70;102723;1263;97907;-69
2023/08/09 04:48:18;;;;;;;3.50;2.90;;;;;;;14.09;73.10;99851.61;102658;1263;111114;-70
2023/08/09 04:50:46;;;;;;;7.40;2.80;;;;;;;14.17;72.86;99854.34;102693;1261;107750;-67
2023/08/09 04:53:13;;;;;;;4.90;2.60;;;;;;;14.27;72.72;99862.72;102735;1261;97704;-67
2023/08/09 04:55:40;;;;;;;7.10;2.50;;;;;;;14.41;72.63;99857.77;102611;1261;138273;-69
2023/08/09 04:58:08;;;;;;;4.90;2.70;;;;;;;14.57;72.34;99857.77;104130;1260;95904;-69
2023/08/09 05:00:35;;;;;;;4.60;2.40;;;;;;;14.74;71.80;99867.88;103102;1260;138533;-70
2023/08/09 05:03:04;;;;;;;6.30;2.80;;;;;;;14.88;71.63;99869.55;102648;1264;107621;-69
2023/08/09 05:05:32;;;;;;;4.00;2.50;;;;;;;15.12;71.23;99868.02;102792;1260;97824;-69
2023/08/09 05:07:59;;;;;;;4.30;2.20;;;;;;;15.67;70.84;99865.70;102664;1260;138244;-71
2023/08/09 05:10:28;;;;;;;4.20;2.10;;;;;;;17.25;69.57;99854.92;102789;1260;97799;-71
2023/08/09 05:12:54;;;;;;;5.10;2.10;;;;;;;19.25;66.49;99847.58;102687;1264;137648;-71
2023/08/09 05:15:22;;;;;;;3.90;1.70;;;;;;;21.13;62.93;99833.74;102674;1264;108455;-70
2023/08/09 05:17:49;;;;;;;3.50;1.60;;;;;;;22.83;59.35;99833.61;102808;1260;97917;-70
2023/08/09 05:20:16;;;;;;;4.60;1.50;;;;;;;24.57;56.70;99833.34;102663;1260;137669;-69
2023/08/09 05:22:44;;;;;;;3.50;1.60;;;;;;;26.26;53.12;99835.83;102717;1261;97932;-69
2023/08/09 05:25:11;;;;;;;5.80;1.80;;;;;;;27.76;50.01;99832.52;102625;1260;138543;-69
2023/08/09 05:27:38;;;;;;;6.50;1.60;;;;;;;29.08;47.02;99826.67;102574;1261;107458;-70
2023/08/09 05:30:06;;;;;;;2.70;1.50;;;;;;;30.16;44.27;99824.50;102747;1261;97811;-69
2023/08/09 05:32:33;;;;;;;2.20;1.50;;;;;;;31.06;42.31;99820.81;102874;1260;138553;-69
2023/08/09 05:35:00;;;;;;;5.20;1.80;;;;;;;31.81;40.30;99819.05;102707;1260;97843;-71
2023/08/09 05:37:27;;;;;;;5.00;2.00;;;;;;;32.65;38.97;99816.36;102572;1260;137485;-63
2023/08/09 05:39:55;;;;;;;3.60;1.80;;;;;;;32.94;37.15;99818.20;102711;1261;99020;-65
2023/08/09 05:42:22;;;;;;;3.70;1.40;;;;;;;33.43;36.48;99817.09;102617;1261;137858;-65
2023/08/09 05:44:49;;;;;;;6.20;1.70;;;;;;;34.20;34.84;99814.31;102755;1264;99571;-65
2023/08/09 05:47:16;;;;;;;2.80;1.60;;;;;;;34.87;33.78;99810.94;102749;1265;97753;-65
2023/08/09 05:49:43;;;;;;;2.70;1.70;;;;;;;35.56;33.07;99818.09;102654;1261;137694;-66
2023/08/09 05:52:10;;;;;;;2.50;1.70;;;;;;;36.37;32.13;99823.75;102748;1260;101274;-66
2023/08/09 05:54:37;;;;;;;5.70;1.80;;;;;;;36.98;30.50;99824.10;102672;1264;139655;-66
2023/08/09 05:57:05;;;;;;;4.90;1.60;;;;;;;37.47;29.67;99829.88;102698;1260;100172;-66
2023/08/09 05:59:32;;;;;;;3.20;1.70;;;;;;;37.96;28.85;99830.94;102913;1260;97927;-66
2023/08/09 06:02:00;;;;;;;3.30;1.50;;;;;;;38.58;27.77;99830.55;102526;1260;137572;-67
2023/08/09 06:04:27;;;;;;;6.30;1.40;;;;;;;38.88;26.90;99829.19;102620;1260;100064;-65
2023/08/09 06:06:54;;;;;;;4.30;1.40;;;;;;;38.92;26.12;99836.25;102580;1262;137874;-65
2023/08/09 06:09:21;;;;;;;3.20;1.30;;;;;;;38.70;25.53;99837.62;102654;1261;99234;-65
2023/08/09 06:11:48;;;;;;;3.00;1.30;;;;;;;38.64;25.64;99835.98;102712;1265;97941;-65
2023/08/09 06:14:16;;;;;;;2.90;1.10;;;;;;;38.87;25.39;99836.60;102720;1260;137428;-66
2023/08/09 06:16:47;;;;;;;4.50;1.50;;;;;;;39.40;25.13;99832.75;102687;1265;99313;-67
2023/08/09 06:19:15;;;;;;;5.00;1.20;;;;;;;39.94;24.53;99835.85;103746;1266;137486;-66
2023/08/09 06:21:43;;;;;;;2.40;1.10;;;;;;;40.25;24.10;99841.20;102628;1267;100665;-66
2023/08/09 06:24:10;;;;;;;1.50;1.00;;;;;;;40.52;23.08;99846.53;102637;1267;97856;-66
2023/08/09 06:26:38;;;;;;;1.60;1.00;;;;;;;40.55;23.19;99843.19;102541;1260;137447;-66
2023/08/09 06:29:05;;;;;;;2.90;1.20;;;;;;;40.78;22.97;99836.30;102642;1262;99792;-66
2023/08/09 06:31:33;;;;;;;1.50;1.10;;;;;;;40.82;22.12;99833.66;102470;1266;137578;-67
2023/08/09 06:34:00;;;;;;;2.50;1.00;;;;;;;40.71;22.12;99831.02;102716;1262;108587;-67
2023/08/09 06:36:27;;;;;;;3.10;1.10;;;;;;;40.96;22.14;99828.50;102522;1262;137895;-66
2023/08/09 06:38:54;;;;;;;2.40;1.10;;;;;;;41.22;21.72;99827.61;102691;1261;103509;-66
2023/08/09 06:41:21;;;;;;;3.90;1.00;;;;;;;41.36;21.30;99829.84;102668;1261;99934;-66
2023/08/09 06:43:48;;;;;;;4.30;1.20;;;;;;;41.41;21.14;99833.26;103334;1261;137687;-66
2023/08/09 06:46:15;;;;;;;1.90;1.20;;;;;;;41.43;20.72;99834.14;102703;1261;99269;-66
2023/08/09 06:48:42;;;;;;;3.20;1.00;;;;;;;41.52;20.10;99837.23;102650;1261;137680;-67
2023/08/09 06:51:11;;;;;;;2.30;0.80;;;;;;;41.60;20.33;99838.73;102703;1260;103750;-67
2023/08/09 06:53:39;;;;;;;1.60;0.70;;;;;;;41.69;20.06;99835.52;103018;1260;100229;-66
2023/08/09 06:56:06;;;;;;;1.30;0.80;;;;;;;41.78;19.81;99834.38;103218;1261;138463;-67
2023/08/09 06:58:35;;;;;;;2.90;1.00;;;;;;;41.90;19.71;99831.94;102654;1266;99680;-66
2023/08/09 07:01:03;;;;;;;3.10;0.80;;;;;;;42.04;19.52;99838.34;102548;1261;137600;-66
2023/08/09 07:03:31;;;;;;;2.70;0.70;;;;;;;42.26;19.38;99841.73;103791;1260;103729;-66
2023/08/09 07:05:58;;;;;;;3.50;0.80;;;;;;;42.30;19.09;99843.51;103249;1261;99050;-66
2023/08/09 07:08:26;;;;;;;1.90;1.00;;;;;;;42.20;19.05;99839.86;102638;1264;137547;-66
2023/08/09 07:10:53;;;;;;;2.20;0.80;;;;;;;42.26;18.88;99841.48;102758;1260;100263;-66
2023/08/09 07:13:20;;;;;;;2.10;0.70;;;;;;;42.02;17.32;99841.44;102796;1261;137824;-66
2023/08/09 07:15:48;;;;;;;3.70;0.80;;;;;;;41.19;18.15;99837.76;102737;1261;103684;-65
2023/08/09 07:18:16;;;;;;;2.20;0.80;;;;;;;40.84;18.71;99842.43;103120;1266;100410;-67
2023/08/09 07:20:44;;;;;;;1.80;1.10;;;;;;;40.03;19.23;99846.77;102684;1260;97833;-68
2023/08/09 07:23:11;;;;;;;2.30;1.10;;;;;;;39.73;19.55;99851.04;102715;1260;100108;-67
2023/08/09 07:25:39;;;;;;;1.40;1.10;;;;;;;39.87;19.64;99843.94;102894;1260;137989;-67
2023/08/09 07:28:08;;;;;;;1.60;1.00;;;;;;;40.16;19.56;99846.22;102907;1261;103623;-67
2023/08/09 07:30:36;;;;;;;2.50;1.30;;;;;;;40.50;19.49;99846.73;103475;1260;138239;-67
2023/08/09 07:33:06;;;;;;;3.00;1.10;;;;;;;41.00;18.87;99849.34;103391;1260;97797;-67
2023/08/09 07:35:33;;;;;;;1.30;1.00;;;;;;;40.73;18.84;99857.06;103419;1264;100301;-67
2023/08/09 07:38:02;;;;;;;1.40;1.00;;;;;;;40.61;19.10;99851.41;102667;1260;137677;-67
2023/08/09 07:40:31;;;;;;;2.10;1.10;;;;;;;40.62;18.86;99855.64;103086;1260;101573;-67
2023/08/09 07:43:00;;;;;;;2.00;1.10;;;;;;;39.20;18.46;99862.50;104051;1260;138659;-67
2023/08/09 07:45:28;;;;;;;2.20;1.00;;;;;;;36.89;19.60;99859.48;104190;1260;95683;-67
2023/08/09 07:47:55;;;;;;;2.10;1.00;;;;;;;35.90;20.69;99860.20;102661;1264;100672;-66
2023/08/09 07:50:23;;;;;;;2.30;1.20;;;;;;;34.74;21.59;99866.17;102655;1264;137648;-66
2023/08/09 07:52:51;;;;;;;3.60;1.10;;;;;;;33.64;22.54;99867.23;104033;1260;103880;-67
2023/08/09 07:55:18;;;;;;;2.00;1.10;;;;;;;33.52;22.78;99868.98;102635;1261;138291;-66
2023/08/09 07:57:46;;;;;;;2.00;1.20;;;;;;;33.73;22.70;99867.23;103737;1260;95949;-66
2023/08/09 08:00:17;;;;;;;1.30;1.20;;;;;;;33.96;22.53;99865.70;102738;1263;100107;-66
2023/08/09 08:02:46;;;;;;;2.40;1.10;;;;;;;33.85;22.82;99865.48;104016;1260;95638;-66
2023/08/09 08:05:15;;;;;;;4.30;1.40;;;;;;;33.41;23.62;99859.35;102666;1261;103170;-66
2023/08/09 08:07:44;;;;;;;3.90;1.20;;;;;;;33.39;23.51;99857.52;102640;1259;139977;-67
2023/08/09 08:10:14;;;;;;;1.90;1.10;;;;;;;33.72;23.75;99853.85;103142;1264;97899;-67
2023/08/09 08:12:42;;;;;;;1.70;1.10;;;;;;;34.26;23.25;99866.20;104108;1260;138483;-67
2023/08/09 08:15:12;;;;;;;2.10;1.20;;;;;;;34.59;22.60;99865.11;103269;1262;97787;-67
2023/08/09 08:17:39;;;;;;;3.20;1.10;;;;;;;34.54;22.13;99862.84;103410;1260;103538;-67
2023/08/09 08:20:15;;;;;;;4.10;1.00;;;;;;;34.21;22.43;99864.80;103453;1260;138613;-67
2023/08/09 08:22:43;;;;;;;3.10;1.20;;;;;;;34.14;22.83;99866.35;103025;1260;97794;-67
2023/08/09 08:25:11;;;;;;;2.50;1.10;;;;;;;33.69;23.10;99865.32;102764;1260;137632;-68
2023/08/09 08:27:42;;;;;;;4.10;1.30;;;;;;;33.56;23.53;99866.95;104174;1261;95713;-67
2023/08/09 08:30:12;;;;;;;2.30;1.00;;;;;;;33.41;23.19;99868.23;103347;1260;112264;-67
2023/08/09 08:32:42;;;;;;;2.30;1.40;;;;;;;32.97;23.80;99871.69;103411;1260;110572;-67
2023/08/09 08:35:13;;;;;;;2.60;1.30;;;;;;;32.83;23.97;99869.77;103473;1260;97924;-67
2023/08/09 08:37:41;;;;;;;2.80;1.40;;;;;;;32.68;24.47;99864.04;102669;1264;137539;-67
2023/08/09 08:40:17;;;;;;;3.20;1.30;;;;;;;32.91;24.64;99868.17;102955;1261;411159;-67
2023/08/09 08:42:45;;;;;;;1.90;1.10;;;;;;;33.37;24.12;99873.20;102974;1262;138127;-67
2023/08/09 08:45:15;;;;;;;2.40;1.00;;;;;;;33.06;23.38;99876.64;102883;1261;99807;-67
2023/08/09 08:47:43;;;;;;;1.40;1.20;;;;;;;32.11;24.20;99884.77;102803;1261;97809;-67
2023/08/09 08:50:12;;;;;;;2.80;1.30;;;;;;;31.14;24.93;99886.79;102721;1264;137863;-68
2023/08/09 08:52:42;;;;;;;4.40;1.20;;;;;;;30.30;25.90;99883.35;104203;1260;95878;-68
2023/08/09 08:55:11;;;;;;;2.70;1.80;;;;;;;30.39;26.57;99880.08;104044;1260;138015;-67
2023/08/09 08:57:39;;;;;;;3.50;1.40;;;;;;;30.62;26.19;99880.08;102691;1261;107937;-67
2023/08/09 09:00:11;;;;;;;4.30;1.50;;;;;;;29.95;26.57;99881.20;102729;1261;97789;-67
2023/08/09 09:02:52;;;;;;;3.60;1.70;;;;;;;29.26;27.18;99881.67;103089;1260;107536;-67
2023/08/09 09:05:20;;;;;;;2.40;1.30;;;;;;;28.93;27.45;99886.40;103166;1260;97989;-66
2023/08/09 09:07:50;;;;;;;4.50;1.50;;;;;;;28.23;28.05;99891.80;103453;1260;137504;-67
2023/08/09 09:10:20;;;;;;;6.80;1.50;;;;;;;27.29;28.94;99890.27;102784;1263;109631;-67
2023/08/09 09:12:49;;;;;;;3.90;1.60;;;;;;;26.76;29.89;99886.59;103661;1259;138624;-67
2023/08/09 09:15:17;;;;;;;2.80;1.50;;;;;;;26.37;30.65;99887.42;103242;1260;107917;-67
2023/08/09 09:17:46;;;;;;;3.30;1.60;;;;;;;26.81;31.17;99886.69;102739;1263;97926;-67
2023/08/09 09:20:21;;;;;;;3.60;1.90;;;;;;;27.35;30.72;99884.70;103372;1260;137504;-67
2023/08/09 09:22:48;;;;;;;3.10;1.50;;;;;;;27.06;30.63;99885.13;103132;1260;108300;-67
2023/08/09 09:25:17;;;;;;;5.10;1.60;;;;;;;26.59;30.78;99882.98;102618;1262;137884;-67
2023/08/09 09:27:46;;;;;;;4.70;1.50;;;;;;;26.05;30.85;99895.86;103930;1260;108544;-67
2023/08/09 09:30:14;;;;;;;5.40;1.80;;;;;;;25.50;31.71;99898.38;103446;1260;97801;-68
2023/08/09 09:32:54;;;;;;;4.70;1.70;;;;;;;25.15;32.22;99898.36;103564;1260;137288;-68
2023/08/09 09:35:23;;;;;;;4.00;1.50;;;;;;;24.88;32.71;99900.24;104111;1260;108747;-68
2023/08/09 09:37:51;;;;;;;5.20;2.00;;;;;;;24.75;33.26;99902.92;103761;1260;137680;-68
2023/08/09 09:40:24;;;;;;;2.80;2.30;;;;;;;24.69;33.54;99900.15;103535;1260;107865;-67
2023/08/09 09:42:53;;;;;;;5.70;1.70;;;;;;;24.59;33.97;99895.09;104044;1260;137912;-67
2023/08/09 09:45:24;;;;;;;3.30;1.70;;;;;;;24.46;33.88;99897.02;104218;1261;111420;-67
2023/08/09 09:47:52;;;;;;;7.30;1.60;;;;;;;24.36;34.29;99898.13;103710;1260;108302;-67
2023/08/09 09:50:21;;;;;;;4.80;1.70;;;;;;;24.28;34.16;99900.14;102657;1259;137829;-67
2023/08/09 09:52:48;;;;;;;6.60;1.50;;;;;;;24.25;34.42;99898.02;103084;1260;107171;-67
2023/08/09 09:55:19;;;;;;;6.80;1.90;;;;;;;24.25;34.61;99897.41;102991;1264;137812;-66
2023/08/09 09:57:50;;;;;;;4.60;1.50;;;;;;;24.49;34.57;99894.12;103143;1266;113834;-67
2023/08/09 10:00:20;;;;;;;5.10;1.40;;;;;;;24.55;34.34;99889.02;104035;1260;107001;-67
2023/08/09 10:02:48;;;;;;;3.60;1.50;;;;;;;24.56;34.74;99882.17;103497;1260;97713;-67
2023/08/09 10:05:18;;;;;;;2.80;1.70;;;;;;;24.76;34.67;99882.80;102736;1259;107584;-67
2023/08/09 10:07:47;;;;;;;4.20;1.70;;;;;;;24.87;34.32;99877.98;103538;1260;137746;-67
2023/08/09 10:10:20;;;;;;;2.50;1.40;;;;;;;24.98;34.44;99878.48;103476;1259;110769;-66
2023/08/09 10:12:52;;;;;;;2.30;1.50;;;;;;;25.25;34.20;99877.92;102681;1264;137856;-66
2023/08/09 10:15:24;;;;;;;4.80;1.80;;;;;;;25.35;33.76;99871.84;103455;1264;97046;-67
2023/08/09 10:17:54;;;;;;;8.20;1.60;;;;;;;25.43;34.04;99874.52;103748;1260;107259;-67
2023/08/09 10:20:22;;;;;;;4.70;1.50;;;;;;;25.54;33.48;99873.92;102612;1264;137690;-67
2023/08/09 10:22:51;;;;;;;3.40;1.60;;;;;;;25.52;33.17;99868.83;103052;1259;111290;-67
2023/08/09 10:25:38;;;;;;;2.20;1.50;;;;;;;25.30;33.30;99866.93;103637;1260;137604;-67
2023/08/09 10:28:06;;;;;;;8.20;1.70;;;;;;;25.01;33.53;99865.23;104240;1262;96018;-67
2023/08/09 10:30:46;;;;;;;3.30;1.50;;;;;;;25.01;34.22;99860.08;103480;1260;137618;-67
2023/08/09 10:33:18;;;;;;;3.10;1.40;;;;;;;25.05;34.30;99859.34;104194;1261;95814;-67
2023/08/09 10:35:51;;;;;;;3.10;1.40;;;;;;;25.46;34.47;99858.55;103142;1264;112362;-68
2023/08/09 10:38:19;;;;;;;2.90;1.40;;;;;;;25.84;33.76;99862.73;103821;1261;138441;-68
2023/08/09 10:40:54;;;;;;;3.50;1.30;;;;;;;25.82;33.24;99862.04;102798;1261;97856;-67
2023/08/09 10:43:23;;;;;;;6.00;1.50;;;;;;;25.64;33.22;99860.88;103574;1260;138061;-69
2023/08/09 10:45:53;;;;;;;4.90;1.80;;;;;;;25.46;33.42;99858.45;103568;1261;96350;-68
2023/08/09 10:48:22;;;;;;;2.30;1.30;;;;;;;25.30;33.62;99859.48;103214;1259;111704;-68
2023/08/09 10:51:00;;;;;;;3.40;1.30;;;;;;;25.22;33.80;99855.31;104021;1261;138953;-68
2023/08/09 10:53:27;;;;;;;3.70;1.40;;;;;;;25.43;33.66;99857.69;102815;1264;97889;-68
2023/08/09 10:55:58;;;;;;;3.50;1.60;;;;;;;25.52;33.70;99854.78;102737;1264;137946;-67
2023/08/09 10:58:29;;;;;;;3.60;1.50;;;;;;;25.43;33.39;99851.98;103168;1264;96641;-67
2023/08/09 11:00:56;;;;;;;4.20;1.90;;;;;;;25.09;33.24;99857.61;102740;1261;137668;-68
2023/08/09 11:03:23;;;;;;;4.40;2.00;;;;;;;24.79;33.83;99856.89;102674;1261;108320;-68
2023/08/09 11:05:52;;;;;;;1.60;1.40;;;;;;;24.57;34.05;99856.17;102774;1261;97784;-68
2023/08/09 11:08:19;;;;;;;4.30;1.70;;;;;;;24.36;34.28;99856.98;102604;1261;137707;-66
2023/08/09 11:10:49;;;;;;;5.50;1.70;;;;;;;24.12;34.58;99860.65;102778;1260;97857;-67
2023/08/09 11:13:18;;;;;;;2.30;1.40;;;;;;;23.90;35.02;99862.20;103224;1260;137676;-67
2023/08/09 11:15:47;;;;;;;2.30;1.70;;;;;;;23.75;35.16;99860.27;103930;1260;108347;-67
2023/08/09 11:18:15;;;;;;;2.50;1.40;;;;;;;23.51;35.23;99859.95;103537;1259;97892;-67
2023/08/09 11:20:42;;;;;;;4.90;1.60;;;;;;;23.31;35.42;99858.59;102711;1264;137394;-66
2023/08/09 11:23:09;;;;;;;5.90;1.70;;;;;;;23.13;35.34;99854.41;102749;1264;97822;-66
2023/08/09 11:25:39;;;;;;;3.10;1.60;;;;;;;22.95;35.65;99853.68;102632;1260;137474;-66